createdAt,value
2018-02-20T00:01:18.414Z,25.70
2018-02-20T00:03:45.989Z,27.62
2018-02-20T00:06:13.575Z,25.67
2018-02-20T00:08:41.071Z,28.80
2018-02-20T00:11:08.610Z,26.75
2018-02-20T00:13:36.112Z,28.25
2018-02-20T00:16:03.715Z,25.37
2018-02-20T00:18:31.227Z,26.45
2018-02-20T00:20:58.726Z,27.67
2018-02-20T00:23:26.249Z,26.15
2018-02-20T00:25:53.767Z,26.55
2018-02-20T00:28:21.280Z,28.35
2018-02-20T00:30:48.877Z,26.67
2018-02-20T00:33:16.366Z,27.05
2018-02-20T00:35:43.891Z,27.20
2018-02-20T00:38:11.408Z,27.58
2018-02-20T00:40:39.082Z,28.30
2018-02-20T00:43:06.555Z,27.37
2018-02-20T00:45:34.104Z,26.48
2018-02-20T00:48:01.601Z,28.48
2018-02-20T00:50:29.168Z,28.27
2018-02-20T00:52:56.792Z,27.52
2018-02-20T00:55:24.388Z,27.27
2018-02-20T00:57:51.970Z,26.40
2018-02-20T01:00:19.614Z,26.98
2018-02-20T01:02:47.163Z,28.92
2018-02-20T01:05:14.685Z,27.33
2018-02-20T01:07:42.217Z,27.58
2018-02-20T01:10:09.736Z,28.45
2018-02-20T01:12:37.265Z,28.02
2018-02-20T01:15:04.741Z,28.98
2018-02-20T01:17:32.253Z,27.27
2018-02-20T01:19:59.747Z,29.02
2018-02-20T01:22:27.241Z,28.85
2018-02-20T01:24:54.778Z,28.87
2018-02-20T01:27:22.286Z,29.00
2018-02-20T01:29:49.777Z,27.10
2018-02-20T01:32:17.377Z,26.73
2018-02-20T01:34:44.875Z,27.23
2018-02-20T01:37:12.379Z,26.52
2018-02-20T01:39:39.874Z,26.80
2018-02-20T01:42:07.517Z,26.27
2018-02-20T01:44:35.117Z,28.45
2018-02-20T01:47:02.646Z,26.12
2018-02-20T01:49:30.321Z,27.35
2018-02-20T01:51:57.922Z,26.80
2018-02-20T01:54:25.574Z,27.60
2018-02-20T01:56:53.182Z,26.60
2018-02-20T01:59:20.744Z,27.80
2018-02-20T02:01:48.257Z,26.90
2018-02-20T02:04:15.786Z,27.60
2018-02-20T02:06:43.316Z,27.13
2018-02-20T02:09:11.574Z,27.48
2018-02-20T02:11:39.049Z,26.85
2018-02-20T02:14:06.571Z,28.05
2018-02-20T02:16:34.071Z,28.35
2018-02-20T02:19:01.578Z,27.27
2018-02-20T02:21:29.062Z,27.95
2018-02-20T02:23:56.616Z,28.23
2018-02-20T02:26:24.214Z,28.55
2018-02-20T02:28:51.758Z,27.95
2018-02-20T02:31:19.264Z,28.35
2018-02-20T02:33:46.928Z,28.83
2018-02-20T02:36:14.473Z,27.65
2018-02-20T02:38:42.383Z,26.45
2018-02-20T02:41:10.713Z,27.45
2018-02-20T02:43:38.250Z,28.05
2018-02-20T02:46:05.965Z,27.98
2018-02-20T02:48:33.598Z,27.77
2018-02-20T02:51:01.143Z,27.70
2018-02-20T02:53:28.728Z,25.40
2018-02-20T02:55:56.305Z,28.17
2018-02-20T02:58:23.823Z,27.85
2018-02-20T03:00:51.319Z,27.35
2018-02-20T03:03:18.866Z,28.38
2018-02-20T03:05:46.542Z,27.65
2018-02-20T03:08:14.090Z,28.20
2018-02-20T03:10:41.596Z,28.85
2018-02-20T03:13:09.103Z,27.37
2018-02-20T03:15:36.616Z,27.58
2018-02-20T03:18:04.105Z,29.37
2018-02-20T03:20:31.628Z,26.55
2018-02-20T03:22:59.838Z,27.02
2018-02-20T03:25:27.354Z,28.70
2018-02-20T03:27:54.930Z,28.67
2018-02-20T03:30:22.530Z,29.05
2018-02-20T03:32:50.059Z,26.85
2018-02-20T03:35:17.648Z,26.70
2018-02-20T03:37:45.249Z,25.85
2018-02-20T03:40:12.738Z,27.58
2018-02-20T03:42:40.241Z,28.05
2018-02-20T03:45:07.823Z,26.25
2018-02-20T03:47:35.342Z,26.35
2018-02-20T03:50:02.833Z,24.85
2018-02-20T03:52:30.347Z,25.62
2018-02-20T03:54:57.827Z,25.15
2018-02-20T03:57:25.348Z,25.58
2018-02-20T03:59:52.836Z,26.75
2018-02-20T04:02:20.391Z,25.33
2018-02-20T04:04:47.976Z,24.17
2018-02-20T04:07:15.633Z,25.50
2018-02-20T04:09:43.188Z,24.45
2018-02-20T04:12:10.715Z,25.12
2018-02-20T04:14:38.263Z,25.00
2018-02-20T04:17:05.818Z,23.42
2018-02-20T04:19:33.308Z,23.52
2018-02-20T04:22:00.913Z,23.48
2018-02-20T04:24:28.462Z,25.15
2018-02-20T04:26:56.103Z,24.08
2018-02-20T04:29:23.743Z,25.12
2018-02-20T04:31:51.303Z,24.70
2018-02-20T04:34:18.816Z,26.17
2018-02-20T04:36:46.349Z,26.27
2018-02-20T04:39:14.457Z,25.35
2018-02-20T04:41:41.977Z,24.77
2018-02-20T04:44:09.515Z,25.17
2018-02-20T04:46:37.000Z,26.62
2018-02-20T04:49:04.512Z,28.58
2018-02-20T04:51:32.007Z,25.25
2018-02-20T04:53:59.646Z,27.35
2018-02-20T04:56:27.309Z,25.05
2018-02-20T04:58:54.846Z,25.15
2018-02-20T05:01:22.401Z,25.98
2018-02-20T05:03:49.943Z,25.77
2018-02-20T05:06:17.532Z,24.90
2018-02-20T05:08:45.174Z,25.25
2018-02-20T05:11:12.719Z,24.65
2018-02-20T05:13:40.215Z,25.02
2018-02-20T05:16:07.732Z,24.75
2018-02-20T05:18:35.238Z,26.20
2018-02-20T05:21:02.750Z,25.23
2018-02-20T05:23:30.249Z,26.67
2018-02-20T05:25:57.774Z,27.55
2018-02-20T05:28:25.286Z,26.17
2018-02-20T05:30:52.768Z,25.75
2018-02-20T05:33:20.339Z,26.42
2018-02-20T05:35:47.837Z,27.30
2018-02-20T05:38:15.370Z,25.85
2018-02-20T05:40:42.864Z,27.10
2018-02-20T05:43:10.482Z,26.55
2018-02-20T05:45:37.975Z,27.50
2018-02-20T05:48:05.500Z,26.20
2018-02-20T05:50:33.005Z,28.67
2018-02-20T05:53:00.492Z,28.00
2018-02-20T05:55:28.022Z,27.80
2018-02-20T05:57:56.193Z,26.20
2018-02-20T06:00:23.668Z,26.92
2018-02-20T06:02:51.210Z,26.90
2018-02-20T06:05:18.767Z,28.92
2018-02-20T06:07:46.254Z,26.95
2018-02-20T06:10:13.842Z,26.90
2018-02-20T06:12:41.501Z,25.77
2018-02-20T06:15:09.016Z,25.60
2018-02-20T06:17:36.512Z,26.02
2018-02-20T06:20:04.034Z,23.95
2018-02-20T06:22:31.570Z,27.27
2018-02-20T06:24:59.056Z,26.33
2018-02-20T06:27:27.256Z,26.95
2018-02-20T06:29:54.748Z,27.00
2018-02-20T06:32:22.391Z,27.65
2018-02-20T06:34:49.930Z,26.45
2018-02-20T06:37:17.773Z,26.48
2018-02-20T06:39:45.274Z,25.55
2018-02-20T06:42:12.817Z,24.75
2018-02-20T06:44:40.310Z,23.70
2018-02-20T06:47:07.933Z,23.92
2018-02-20T06:49:35.456Z,20.67
2018-02-20T06:52:02.967Z,19.50
2018-02-20T06:54:30.476Z,22.08
2018-02-20T06:56:58.326Z,20.55
2018-02-20T06:59:26.711Z,21.50
2018-02-20T07:01:54.292Z,21.75
2018-02-20T07:04:21.830Z,23.30
2018-02-20T07:06:49.429Z,22.77
2018-02-20T07:09:16.903Z,18.40
2018-02-20T07:11:44.417Z,17.15
2018-02-20T07:14:11.957Z,16.10
2018-02-20T07:16:39.461Z,16.20
2018-02-20T07:19:07.001Z,16.20
2018-02-20T07:21:34.509Z,15.98
2018-02-20T07:24:02.006Z,16.33
2018-02-20T07:26:29.537Z,16.17
2018-02-20T07:28:57.062Z,16.30
2018-02-20T07:31:24.548Z,15.60
2018-02-20T07:33:52.070Z,13.02
2018-02-20T07:36:19.575Z,14.43
2018-02-20T07:38:47.101Z,15.10
2018-02-20T07:41:14.584Z,13.15
2018-02-20T07:43:42.087Z,14.32
2018-02-20T07:46:09.604Z,14.40
2018-02-20T07:48:37.124Z,14.52
2018-02-20T07:51:05.382Z,16.27
2018-02-20T07:53:32.877Z,15.90
2018-02-20T07:56:00.875Z,15.63
2018-02-20T07:58:28.388Z,16.35
2018-02-20T08:00:55.889Z,16.98
2018-02-20T08:03:23.412Z,22.20
2018-02-20T08:05:50.989Z,18.12
2018-02-20T08:08:18.499Z,16.33
2018-02-20T08:10:45.999Z,17.25
2018-02-20T08:13:13.512Z,17.92
2018-02-20T08:15:41.010Z,16.30
2018-02-20T08:18:08.515Z,16.62
2018-02-20T08:20:36.004Z,17.80
2018-02-20T08:23:03.712Z,15.25
2018-02-20T08:25:31.375Z,16.15
2018-02-20T08:27:58.957Z,16.00
2018-02-20T08:30:26.548Z,14.40
2018-02-20T08:32:54.145Z,14.90
2018-02-20T08:35:21.822Z,15.02
2018-02-20T08:37:49.316Z,15.65
2018-02-20T08:40:16.824Z,15.00
2018-02-20T08:42:44.321Z,16.87
2018-02-20T08:45:11.874Z,16.45
2018-02-20T08:47:39.378Z,16.10
2018-02-20T08:50:06.931Z,17.50
2018-02-20T08:52:34.525Z,15.85
2018-02-20T08:55:02.061Z,17.73
2018-02-20T08:57:29.571Z,17.33
2018-02-20T08:59:57.061Z,17.90
2018-02-20T09:02:24.580Z,16.58
2018-02-20T09:04:52.094Z,16.23
2018-02-20T09:07:19.620Z,17.70
2018-02-20T09:09:47.121Z,16.83
2018-02-20T09:12:14.649Z,16.98
2018-02-20T09:14:42.133Z,15.73
2018-02-20T09:17:09.810Z,17.95
2018-02-20T09:19:37.727Z,17.75
2018-02-20T09:22:05.231Z,17.37
2018-02-20T09:24:32.760Z,18.35
2018-02-20T09:27:00.261Z,16.70
2018-02-20T09:29:27.769Z,17.20
2018-02-20T09:31:55.277Z,17.30
2018-02-20T09:34:22.968Z,18.85
2018-02-20T09:36:50.465Z,17.90
2018-02-20T09:39:17.955Z,17.85
2018-02-20T09:41:45.474Z,18.52
2018-02-20T09:44:13.013Z,17.85
2018-02-20T09:46:41.225Z,16.55
2018-02-20T09:49:08.773Z,16.17
2018-02-20T09:51:36.477Z,17.92
2018-02-20T09:54:03.957Z,15.80
2018-02-20T09:56:31.490Z,16.90
2018-02-20T09:58:58.983Z,16.87
2018-02-20T10:01:26.510Z,17.42
2018-02-20T10:03:54.010Z,16.33
2018-02-20T10:06:21.691Z,16.00
2018-02-20T10:08:49.227Z,15.85
2018-02-20T10:11:16.952Z,16.70
2018-02-20T10:13:44.472Z,16.30
2018-02-20T10:16:11.975Z,17.23
2018-02-20T10:18:39.628Z,16.73
2018-02-20T10:21:07.472Z,15.57
2018-02-20T10:23:35.038Z,15.27
2018-02-20T10:26:02.587Z,16.23
2018-02-20T10:28:30.067Z,15.88
2018-02-20T10:30:57.610Z,16.20
2018-02-20T10:33:25.089Z,16.42
2018-02-20T10:35:52.679Z,15.27
2018-02-20T10:38:20.170Z,15.98
2018-02-20T10:40:47.906Z,15.30
2018-02-20T10:43:15.699Z,17.17
2018-02-20T10:45:43.195Z,15.57
2018-02-20T10:48:10.737Z,16.77
2018-02-20T10:50:38.252Z,15.75
2018-02-20T10:53:05.747Z,16.67
2018-02-20T10:55:33.604Z,16.12
2018-02-20T10:58:01.102Z,17.48
2018-02-20T11:00:28.706Z,16.58
2018-02-20T11:02:56.954Z,17.23
2018-02-20T11:05:24.476Z,16.50
2018-02-20T11:07:51.976Z,16.73
2018-02-20T11:10:19.608Z,17.75
2018-02-20T11:12:47.112Z,19.12
2018-02-20T11:15:14.638Z,20.67
2018-02-20T11:17:42.168Z,21.20
2018-02-20T11:20:09.760Z,19.05
2018-02-20T11:22:37.245Z,21.83
2018-02-20T11:25:04.744Z,23.67
2018-02-20T11:27:32.252Z,26.55
2018-02-20T11:29:59.741Z,23.45
2018-02-20T11:32:27.275Z,22.10
2018-02-20T11:34:54.774Z,22.80
2018-02-20T11:37:22.359Z,22.80
2018-02-20T11:39:49.872Z,23.42
2018-02-20T11:42:17.360Z,20.98
2018-02-20T11:44:45.633Z,21.05
2018-02-20T11:47:13.134Z,21.75
2018-02-20T11:49:40.648Z,20.73
2018-02-20T11:52:08.130Z,18.60
2018-02-20T11:54:35.643Z,21.90
2018-02-20T11:57:03.132Z,21.85
2018-02-20T11:59:30.654Z,22.40
2018-02-20T12:01:58.379Z,23.25
2018-02-20T12:04:25.930Z,21.75
2018-02-20T12:06:53.520Z,20.70
2018-02-20T12:09:21.051Z,21.30
2018-02-20T12:11:48.556Z,20.27
2018-02-20T12:14:16.069Z,18.67
2018-02-20T12:16:43.605Z,19.27
2018-02-20T12:19:11.098Z,18.35
2018-02-20T12:21:38.614Z,18.37
2018-02-20T12:24:06.113Z,18.80
2018-02-20T12:26:33.625Z,17.87
2018-02-20T12:29:01.119Z,18.70
2018-02-20T12:31:28.661Z,18.20
2018-02-20T12:33:56.163Z,18.52
2018-02-20T12:36:24.051Z,19.33
2018-02-20T12:38:51.575Z,19.50
2018-02-20T12:41:19.084Z,17.98
2018-02-20T12:43:46.650Z,18.73
2018-02-20T12:46:14.131Z,20.23
2018-02-20T12:48:41.667Z,20.00
2018-02-20T12:51:09.180Z,25.95
2018-02-20T12:53:36.861Z,22.30
2018-02-20T12:56:04.343Z,22.45
2018-02-20T12:58:31.940Z,19.73
2018-02-20T13:00:59.498Z,20.05
2018-02-20T13:03:27.082Z,18.95
2018-02-20T13:05:54.594Z,20.80
2018-02-20T13:08:22.119Z,25.35
2018-02-20T13:10:49.617Z,21.17
2018-02-20T13:13:17.758Z,21.30
2018-02-20T13:15:45.327Z,21.23
2018-02-20T13:18:12.856Z,22.00
2018-02-20T13:20:40.910Z,20.80
2018-02-20T13:23:08.447Z,23.70
2018-02-20T13:25:35.946Z,24.02
2018-02-20T13:28:03.481Z,21.87
2018-02-20T13:30:30.970Z,22.55
2018-02-20T13:32:58.478Z,22.60
2018-02-20T13:35:25.983Z,23.17
2018-02-20T13:37:53.492Z,23.85
2018-02-20T13:40:21.012Z,23.40
2018-02-20T13:42:48.536Z,21.55
2018-02-20T13:45:16.080Z,25.10
2018-02-20T13:47:43.598Z,23.65
2018-02-20T13:50:11.144Z,25.92
2018-02-20T13:52:38.646Z,25.02
2018-02-20T13:55:06.147Z,25.35
2018-02-20T13:57:35.093Z,26.80
2018-02-20T14:00:02.607Z,27.48
2018-02-20T14:02:30.252Z,25.45
2018-02-20T14:04:57.753Z,27.70
2018-02-20T14:07:25.272Z,26.83
2018-02-20T14:09:52.777Z,28.85
2018-02-20T14:12:20.293Z,29.77
2018-02-20T14:14:47.837Z,29.08
2018-02-20T14:17:15.427Z,26.65
2018-02-20T14:19:43.100Z,28.20
2018-02-20T14:22:10.650Z,28.67
2018-02-20T14:24:38.131Z,28.75
2018-02-20T14:27:05.613Z,28.83
2018-02-20T14:29:33.756Z,30.50
2018-02-20T14:32:01.306Z,28.48
2018-02-20T14:34:28.892Z,29.85
2018-02-20T14:36:56.600Z,28.70
2018-02-20T14:39:24.093Z,28.85
2018-02-20T14:41:51.634Z,28.58
2018-02-20T14:44:19.500Z,27.10
2018-02-20T14:46:47.057Z,26.98
2018-02-20T14:49:14.583Z,28.20
2018-02-20T14:51:42.092Z,28.25
2018-02-20T14:54:09.636Z,25.48
2018-02-20T14:56:37.165Z,23.90
2018-02-20T14:59:04.705Z,24.73
2018-02-20T15:01:32.199Z,24.67
2018-02-20T15:03:59.800Z,26.90
2018-02-20T15:06:27.418Z,26.87
2018-02-20T15:08:55.047Z,26.95
2018-02-20T15:11:22.637Z,25.95
2018-02-20T15:13:50.196Z,27.70
2018-02-20T15:16:17.882Z,29.10
2018-02-20T15:18:45.410Z,24.77
2018-02-20T15:21:13.020Z,24.55
2018-02-20T15:23:40.537Z,25.80
2018-02-20T15:26:08.059Z,25.80
2018-02-20T15:28:35.576Z,24.65
2018-02-20T15:31:03.068Z,25.15
2018-02-20T15:33:30.597Z,25.60
2018-02-20T15:35:58.070Z,24.00
2018-02-20T15:38:25.592Z,26.27
2018-02-20T15:40:53.072Z,26.42
2018-02-20T15:43:20.688Z,26.52
2018-02-20T15:45:48.188Z,26.42
2018-02-20T15:48:15.738Z,25.20
2018-02-20T15:50:43.270Z,25.67
2018-02-20T15:53:10.819Z,27.15
2018-02-20T15:55:38.348Z,26.08
2018-02-20T15:58:05.853Z,25.10
2018-02-20T16:00:33.450Z,25.77
2018-02-20T16:03:01.039Z,27.50
2018-02-20T16:05:28.644Z,25.95
2018-02-20T16:07:56.180Z,27.77
2018-02-20T16:10:23.942Z,27.50
2018-02-20T16:12:51.928Z,27.65
2018-02-20T16:15:19.449Z,26.20
2018-02-20T16:17:46.978Z,26.23
2018-02-20T16:20:14.502Z,26.58
2018-02-20T16:22:42.022Z,31.98
2018-02-20T16:25:10.422Z,31.08
2018-02-20T16:27:38.075Z,28.23
2018-02-20T16:30:05.643Z,28.45
2018-02-20T16:32:33.192Z,27.23
2018-02-20T16:35:00.891Z,29.05
2018-02-20T16:37:28.482Z,28.55
2018-02-20T16:39:56.924Z,26.92
2018-02-20T16:42:24.572Z,30.17
2018-02-20T16:44:52.242Z,27.30
2018-02-20T16:47:19.742Z,27.50
2018-02-20T16:49:47.257Z,26.37
2018-02-20T16:52:14.844Z,26.92
2018-02-20T16:54:42.402Z,26.20
2018-02-20T16:57:09.995Z,25.88
2018-02-20T16:59:37.614Z,27.33
2018-02-20T17:02:05.131Z,28.87
2018-02-20T17:04:32.710Z,28.00
2018-02-20T17:07:00.227Z,30.23
2018-02-20T17:09:27.759Z,31.00
2018-02-20T17:11:55.333Z,29.92
2018-02-20T17:14:22.872Z,29.55
2018-02-20T17:16:50.408Z,28.62
2018-02-20T17:19:17.942Z,28.05
2018-02-20T17:21:45.468Z,26.02
2018-02-20T17:24:12.981Z,25.00
2018-02-20T17:26:40.498Z,24.00
2018-02-20T17:29:08.070Z,29.45
2018-02-20T17:31:35.579Z,33.80
2018-02-20T17:34:03.060Z,25.55
2018-02-20T17:36:30.605Z,23.65
2018-02-20T17:38:58.208Z,25.12
2018-02-20T17:41:25.824Z,26.98
2018-02-20T17:43:53.323Z,30.90
2018-02-20T17:46:20.865Z,27.20
2018-02-20T17:48:48.369Z,33.22
2018-02-20T17:51:16.058Z,27.92
2018-02-20T17:53:44.111Z,26.20
2018-02-20T17:56:11.740Z,27.15
2018-02-20T17:58:40.017Z,29.25
2018-02-20T18:01:07.554Z,28.40
2018-02-20T18:03:35.108Z,29.77
2018-02-20T18:06:02.946Z,27.52
2018-02-20T18:08:30.500Z,31.48
2018-02-20T18:10:58.007Z,28.45
2018-02-20T18:13:25.557Z,30.05
2018-02-20T18:15:53.102Z,30.50
2018-02-20T18:18:21.354Z,29.52
2018-02-20T18:20:48.971Z,28.23
2018-02-20T18:23:16.583Z,29.80
2018-02-20T18:25:44.203Z,32.72
2018-02-20T18:28:11.756Z,29.92
2018-02-20T18:30:39.401Z,28.65
2018-02-20T18:33:06.894Z,30.60
2018-02-20T18:35:34.430Z,30.05
2018-02-20T18:38:01.934Z,28.80
2018-02-20T18:40:29.467Z,30.25
2018-02-20T18:42:56.986Z,31.85
2018-02-20T18:45:24.700Z,32.17
2018-02-20T18:47:52.280Z,28.92
2018-02-20T18:50:19.852Z,29.05
2018-02-20T18:52:47.393Z,29.23
2018-02-20T18:55:14.986Z,28.83
2018-02-20T18:57:42.546Z,30.88
2018-02-20T19:00:10.113Z,28.95
2018-02-20T19:02:38.442Z,30.60
2018-02-20T19:05:05.943Z,30.48
2018-02-20T19:07:33.472Z,31.48
2018-02-20T19:10:00.984Z,31.87
2018-02-20T19:12:28.547Z,32.00
2018-02-20T19:14:56.991Z,29.08
2018-02-20T19:17:24.558Z,30.95
2018-02-20T19:19:52.152Z,28.00
2018-02-20T19:22:19.693Z,28.50
2018-02-20T19:24:47.475Z,30.35
2018-02-20T19:27:15.028Z,28.70
2018-02-20T19:29:42.635Z,29.50
2018-02-20T19:32:10.142Z,28.45
2018-02-20T19:34:37.662Z,30.88
2018-02-20T19:37:05.183Z,30.20
2018-02-20T19:39:32.722Z,29.73
2018-02-20T19:42:00.263Z,29.30
2018-02-20T19:44:27.835Z,28.17
2018-02-20T19:46:55.367Z,29.63
2018-02-20T19:49:22.882Z,26.37
2018-02-20T19:51:50.491Z,26.55
2018-02-20T19:54:18.008Z,26.58
2018-02-20T19:56:46.230Z,26.05
2018-02-20T19:59:13.807Z,28.20
2018-02-20T20:01:41.730Z,28.42
2018-02-20T20:04:09.302Z,28.67
2018-02-20T20:06:36.851Z,29.30
2018-02-20T20:09:04.349Z,27.42
2018-02-20T20:11:31.924Z,27.58
2018-02-20T20:13:59.452Z,29.83
2018-02-20T20:16:27.895Z,28.73
2018-02-20T20:18:55.454Z,27.95
2018-02-20T20:21:23.328Z,28.55
2018-02-20T20:23:50.834Z,28.65
2018-02-20T20:26:18.365Z,28.85
2018-02-20T20:28:46.055Z,27.20
2018-02-20T20:31:13.594Z,28.17
2018-02-20T20:33:41.136Z,29.45
2018-02-20T20:36:08.674Z,29.10
2018-02-20T20:38:36.223Z,27.45
2018-02-20T20:41:03.762Z,29.63
2018-02-20T20:43:31.368Z,30.77
2018-02-20T20:45:58.883Z,30.67
2018-02-20T20:48:26.429Z,27.65
2018-02-20T20:50:54.065Z,29.63
2018-02-20T20:53:21.602Z,30.00
2018-02-20T20:55:49.198Z,29.75
2018-02-20T20:58:16.807Z,30.35
2018-02-20T21:00:44.396Z,30.83
2018-02-20T21:03:11.918Z,29.92
2018-02-20T21:05:39.487Z,30.12
2018-02-20T21:08:07.044Z,30.52
2018-02-20T21:10:34.569Z,30.15
2018-02-20T21:13:02.074Z,30.75
2018-02-20T21:15:29.686Z,31.92
2018-02-20T21:17:57.197Z,29.40
2018-02-20T21:20:24.721Z,30.98
2018-02-20T21:22:52.229Z,33.22
2018-02-20T21:25:19.720Z,31.02
2018-02-20T21:27:47.245Z,32.42
2018-02-20T21:30:14.789Z,33.58
2018-02-20T21:32:42.411Z,31.48
2018-02-20T21:35:09.940Z,33.13
2018-02-20T21:37:37.506Z,33.10
2018-02-20T21:40:05.022Z,32.33
2018-02-20T21:42:32.550Z,30.88
2018-02-20T21:45:00.069Z,29.98
2018-02-20T21:47:27.657Z,32.08
2018-02-20T21:49:55.203Z,30.62
2018-02-20T21:52:22.791Z,32.00
2018-02-20T21:54:50.428Z,30.25
2018-02-20T21:57:17.967Z,30.65
2018-02-20T21:59:45.576Z,30.85
2018-02-20T22:02:13.068Z,30.77
2018-02-20T22:04:40.602Z,30.70
2018-02-20T22:07:08.120Z,31.90
2018-02-20T22:09:35.664Z,33.47
2018-02-20T22:12:03.247Z,31.25
2018-02-20T22:14:31.377Z,31.50
2018-02-20T22:16:58.868Z,30.42
2018-02-20T22:19:26.376Z,32.85
2018-02-20T22:21:53.885Z,29.65
2018-02-20T22:24:21.412Z,29.02
2018-02-20T22:26:49.003Z,30.15
2018-02-20T22:29:16.573Z,30.75
2018-02-20T22:31:44.170Z,30.20
2018-02-20T22:34:11.679Z,29.60
2018-02-20T22:36:39.328Z,30.75
2018-02-20T22:39:06.945Z,29.50
2018-02-20T22:41:34.520Z,31.15
2018-02-20T22:44:02.037Z,27.25
2018-02-20T22:46:29.527Z,28.87
2018-02-20T22:48:57.050Z,28.35
2018-02-20T22:51:24.687Z,28.48
2018-02-20T22:53:52.197Z,30.60
2018-02-20T22:56:19.702Z,28.65
2018-02-20T22:58:47.225Z,28.12
2018-02-20T23:01:14.719Z,29.20
2018-02-20T23:03:42.224Z,28.02
2018-02-20T23:06:09.726Z,29.85
2018-02-20T23:08:37.225Z,27.30
2018-02-20T23:11:05.584Z,28.05
2018-02-20T23:13:33.179Z,25.45
2018-02-20T23:16:00.806Z,28.33
2018-02-20T23:18:28.306Z,27.90
2018-02-20T23:20:55.807Z,28.15
2018-02-20T23:23:24.652Z,29.05
2018-02-20T23:25:52.151Z,28.00
2018-02-20T23:28:19.672Z,27.70
2018-02-20T23:30:47.210Z,26.25
2018-02-20T23:33:14.738Z,28.73
2018-02-20T23:35:42.252Z,26.98
2018-02-20T23:38:09.761Z,23.25
2018-02-20T23:40:37.271Z,28.38
2018-02-20T23:43:04.786Z,27.37
2018-02-20T23:45:32.279Z,27.00
2018-02-20T23:47:59.796Z,25.35
2018-02-20T23:50:27.276Z,27.77
2018-02-20T23:52:54.802Z,23.73
2018-02-20T23:55:22.316Z,25.95
2018-02-20T23:57:49.846Z,25.52
